sensor_id;sensor_type;location;lat;lon;timestamp;pressure;altitude;pressure_sealevel;temperature;humidity
50087;BME280;35967;50.718;7.050;2022-12-20T00:01:29;100863.94;;;10.37;89.75
50087;BME280;35967;50.718;7.050;2022-12-20T00:11:32;100856.81;;;10.51;90.11
50087;BME280;35967;50.718;7.050;2022-12-20T00:21:37;100833.06;;;10.35;91.68
50087;BME280;35967;50.718;7.050;2022-12-20T00:31:40;100813.63;;;10.19;93.61
50087;BME280;35967;50.718;7.050;2022-12-20T00:41:45;100803.94;;;10.33;92.60
50087;BME280;35967;50.718;7.050;2022-12-20T00:51:48;100793.22;;;10.09;93.87
50087;BME280;35967;50.718;7.050;2022-12-20T01:01:52;100784.50;;;10.17;93.21
50087;BME280;35967;50.718;7.050;2022-12-20T01:11:55;100797.28;;;10.21;93.68
50087;BME280;35967;50.718;7.050;2022-12-20T01:22:00;100804.81;;;10.32;92.24
50087;BME280;35967;50.718;7.050;2022-12-20T01:32:03;100801.53;;;10.24;92.27
50087;BME280;35967;50.718;7.050;2022-12-20T01:42:11;100806.03;;;10.11;93.79
50087;BME280;35967;50.718;7.050;2022-12-20T01:52:18;100798.25;;;10.16;93.00
50087;BME280;35967;50.718;7.050;2022-12-20T02:02:23;100795.75;;;10.11;92.93
50087;BME280;35967;50.718;7.050;2022-12-20T02:12:30;100814.75;;;10.05;93.86
50087;BME280;35967;50.718;7.050;2022-12-20T02:22:41;100788.13;;;10.06;93.50
50087;BME280;35967;50.718;7.050;2022-12-20T02:32:53;100771.81;;;10.07;93.20
50087;BME280;35967;50.718;7.050;2022-12-20T02:43:01;100792.47;;;10.04;94.20
50087;BME280;35967;50.718;7.050;2022-12-20T02:53:07;100775.84;;;10.22;93.35
50087;BME280;35967;50.718;7.050;2022-12-20T03:03:12;100779.03;;;10.35;92.94
50087;BME280;35967;50.718;7.050;2022-12-20T03:13:27;100764.56;;;10.30;93.82
50087;BME280;35967;50.718;7.050;2022-12-20T03:23:41;100760.13;;;10.38;92.00
50087;BME280;35967;50.718;7.050;2022-12-20T03:33:46;100745.59;;;10.35;92.37
50087;BME280;35967;50.718;7.050;2022-12-20T03:43:50;100753.31;;;10.35;92.70
50087;BME280;35967;50.718;7.050;2022-12-20T03:53:56;100760.13;;;10.38;91.90
50087;BME280;35967;50.718;7.050;2022-12-20T04:04:18;100758.34;;;10.41;91.51
50087;BME280;35967;50.718;7.050;2022-12-20T04:14:22;100760.84;;;10.46;92.26
50087;BME280;35967;50.718;7.050;2022-12-20T04:24:25;100750.53;;;10.46;91.35
50087;BME280;35967;50.718;7.050;2022-12-20T04:34:45;100735.91;;;10.48;91.09
50087;BME280;35967;50.718;7.050;2022-12-20T04:44:49;100732.41;;;10.52;90.88
50087;BME280;35967;50.718;7.050;2022-12-20T04:54:59;100740.47;;;10.32;91.58
50087;BME280;35967;50.718;7.050;2022-12-20T05:05:06;100727.28;;;10.51;90.60
50087;BME280;35967;50.718;7.050;2022-12-20T05:15:17;100726.56;;;10.44;90.95
50087;BME280;35967;50.718;7.050;2022-12-20T05:25:21;100720.72;;;10.34;92.19
50087;BME280;35967;50.718;7.050;2022-12-20T05:35:43;100711.16;;;10.43;91.25
50087;BME280;35967;50.718;7.050;2022-12-20T05:45:50;100693.88;;;10.49;90.13
50087;BME280;35967;50.718;7.050;2022-12-20T05:56:04;100694.69;;;10.50;90.83
50087;BME280;35967;50.718;7.050;2022-12-20T06:06:11;100684.38;;;10.51;91.27
50087;BME280;35967;50.718;7.050;2022-12-20T06:16:19;100676.28;;;10.68;89.23
50087;BME280;35967;50.718;7.050;2022-12-20T06:26:27;100672.06;;;10.64;90.20
50087;BME280;35967;50.718;7.050;2022-12-20T06:36:39;100660.63;;;10.78;88.73
50087;BME280;35967;50.718;7.050;2022-12-20T06:46:48;100642.28;;;10.92;86.95
50087;BME280;35967;50.718;7.050;2022-12-20T06:56:52;100637.44;;;10.78;88.36
50087;BME280;35967;50.718;7.050;2022-12-20T07:06:56;100642.25;;;10.93;86.79
50087;BME280;35967;50.718;7.050;2022-12-20T07:17:00;100631.03;;;10.94;88.10
50087;BME280;35967;50.718;7.050;2022-12-20T07:27:03;100613.38;;;10.79;88.44
50087;BME280;35967;50.718;7.050;2022-12-20T07:37:07;100604.56;;;10.89;86.99
50087;BME280;35967;50.718;7.050;2022-12-20T07:47:10;100613.84;;;10.96;86.80
50087;BME280;35967;50.718;7.050;2022-12-20T07:57:27;100610.50;;;10.93;86.64
50087;BME280;35967;50.718;7.050;2022-12-20T08:07:31;100626.56;;;11.02;86.62
50087;BME280;35967;50.718;7.050;2022-12-20T08:17:36;100600.84;;;11.01;87.00
50087;BME280;35967;50.718;7.050;2022-12-20T08:27:39;100595.69;;;11.01;87.01
50087;BME280;35967;50.718;7.050;2022-12-20T08:37:43;100585.03;;;11.15;86.16
50087;BME280;35967;50.718;7.050;2022-12-20T08:47:47;100582.31;;;11.21;85.66
50087;BME280;35967;50.718;7.050;2022-12-20T08:57:52;100560.56;;;11.31;84.64
50087;BME280;35967;50.718;7.050;2022-12-20T09:07:55;100578.69;;;11.28;85.45
50087;BME280;35967;50.718;7.050;2022-12-20T09:17:59;100581.06;;;11.36;84.86
50087;BME280;35967;50.718;7.050;2022-12-20T09:28:04;100600.69;;;11.40;84.08
50087;BME280;35967;50.718;7.050;2022-12-20T09:38:09;100601.41;;;11.47;84.26
50087;BME280;35967;50.718;7.050;2022-12-20T09:48:16;100598.94;;;11.42;83.51
50087;BME280;35967;50.718;7.050;2022-12-20T09:58:34;100600.03;;;11.33;85.16
50087;BME280;35967;50.718;7.050;2022-12-20T10:08:43;100592.69;;;11.51;83.58
50087;BME280;35967;50.718;7.050;2022-12-20T10:18:57;100582.38;;;11.51;83.74
50087;BME280;35967;50.718;7.050;2022-12-20T10:29:04;100597.81;;;11.52;84.22
50087;BME280;35967;50.718;7.050;2022-12-20T10:39:09;100565.75;;;11.61;83.45
50087;BME280;35967;50.718;7.050;2022-12-20T10:49:30;100532.88;;;11.70;82.44
50087;BME280;35967;50.718;7.050;2022-12-20T10:59:36;100533.50;;;11.78;81.76
50087;BME280;35967;50.718;7.050;2022-12-20T11:09:51;100518.84;;;11.78;82.20
50087;BME280;35967;50.718;7.050;2022-12-20T11:20:06;100529.53;;;11.96;80.36
50087;BME280;35967;50.718;7.050;2022-12-20T11:30:18;100502.78;;;12.00;79.43
50087;BME280;35967;50.718;7.050;2022-12-20T11:40:29;100482.97;;;12.01;79.21
50087;BME280;35967;50.718;7.050;2022-12-20T11:50:41;100489.75;;;12.05;79.40
50087;BME280;35967;50.718;7.050;2022-12-20T12:00:53;100459.53;;;12.08;79.02
50087;BME280;35967;50.718;7.050;2022-12-20T12:11:03;100457.16;;;12.29;76.68
50087;BME280;35967;50.718;7.050;2022-12-20T12:21:09;100445.88;;;12.31;77.12
50087;BME280;35967;50.718;7.050;2022-12-20T12:31:23;100438.94;;;12.34;77.50
50087;BME280;35967;50.718;7.050;2022-12-20T12:41:46;100422.63;;;12.33;75.95
50087;BME280;35967;50.718;7.050;2022-12-20T12:51:57;100417.19;;;12.41;76.12
50087;BME280;35967;50.718;7.050;2022-12-20T13:12:55;100424.31;;;12.59;73.81
50087;BME280;35967;50.718;7.050;2022-12-20T13:23:09;100425.28;;;12.55;74.08
50087;BME280;35967;50.718;7.050;2022-12-20T13:33:20;100430.09;;;12.66;73.70
50087;BME280;35967;50.718;7.050;2022-12-20T13:43:29;100413.19;;;12.57;73.65
50087;BME280;35967;50.718;7.050;2022-12-20T13:53:36;100416.34;;;12.40;75.10
50087;BME280;35967;50.718;7.050;2022-12-20T14:03:44;100406.28;;;12.33;75.57
50087;BME280;35967;50.718;7.050;2022-12-20T14:13:57;100402.72;;;12.37;75.58
50087;BME280;35967;50.718;7.050;2022-12-20T14:24:01;100408.19;;;12.26;76.17
50087;BME280;35967;50.718;7.050;2022-12-20T14:34:13;100410.97;;;12.46;74.77
50087;BME280;35967;50.718;7.050;2022-12-20T14:44:20;100403.06;;;12.51;74.37
50087;BME280;35967;50.718;7.050;2022-12-20T14:54:26;100383.09;;;12.56;73.79
50087;BME280;35967;50.718;7.050;2022-12-20T15:04:51;100374.47;;;12.57;74.67
50087;BME280;35967;50.718;7.050;2022-12-20T15:14:55;100370.88;;;12.61;73.98
50087;BME280;35967;50.718;7.050;2022-12-20T15:25:20;100361.72;;;12.53;75.59
50087;BME280;35967;50.718;7.050;2022-12-20T15:35:25;100371.19;;;12.52;75.14
50087;BME280;35967;50.718;7.050;2022-12-20T15:45:31;100368.72;;;12.49;75.32
50087;BME280;35967;50.718;7.050;2022-12-20T15:55:35;100369.72;;;12.45;76.80
50087;BME280;35967;50.718;7.050;2022-12-20T16:05:40;100354.19;;;12.46;76.77
50087;BME280;35967;50.718;7.050;2022-12-20T16:15:45;100356.25;;;12.37;78.49
50087;BME280;35967;50.718;7.050;2022-12-20T16:25:48;100357.88;;;12.39;79.44
50087;BME280;35967;50.718;7.050;2022-12-20T16:35:53;100343.59;;;12.29;80.87
50087;BME280;35967;50.718;7.050;2022-12-20T16:45:56;100343.81;;;12.23;82.72
50087;BME280;35967;50.718;7.050;2022-12-20T16:56:04;100327.44;;;12.24;81.92
50087;BME280;35967;50.718;7.050;2022-12-20T17:06:08;100331.59;;;12.28;81.64
50087;BME280;35967;50.718;7.050;2022-12-20T17:16:14;100347.19;;;12.25;82.80
50087;BME280;35967;50.718;7.050;2022-12-20T17:26:18;100331.16;;;12.15;85.91
50087;BME280;35967;50.718;7.050;2022-12-20T17:36:25;100329.53;;;12.12;86.41
50087;BME280;35967;50.718;7.050;2022-12-20T17:46:36;100314.09;;;12.11;85.91
50087;BME280;35967;50.718;7.050;2022-12-20T17:56:40;100317.50;;;12.13;85.83
50087;BME280;35967;50.718;7.050;2022-12-20T18:06:44;100297.63;;;12.15;86.08
50087;BME280;35967;50.718;7.050;2022-12-20T18:16:49;100276.66;;;12.24;84.36
50087;BME280;35967;50.718;7.050;2022-12-20T18:26:52;100292.84;;;12.29;84.67
50087;BME280;35967;50.718;7.050;2022-12-20T18:36:57;100287.31;;;12.39;83.50
50087;BME280;35967;50.718;7.050;2022-12-20T18:47:02;100284.81;;;12.37;84.72
50087;BME280;35967;50.718;7.050;2022-12-20T18:57:07;100285.66;;;12.38;85.29
50087;BME280;35967;50.718;7.050;2022-12-20T19:07:10;100295.06;;;12.39;84.61
50087;BME280;35967;50.718;7.050;2022-12-20T19:17:14;100284.75;;;12.39;84.71
50087;BME280;35967;50.718;7.050;2022-12-20T19:27:17;100276.00;;;12.43;83.97
50087;BME280;35967;50.718;7.050;2022-12-20T19:37:21;100275.22;;;12.41;83.86
50087;BME280;35967;50.718;7.050;2022-12-20T19:47:24;100271.00;;;12.38;84.66
50087;BME280;35967;50.718;7.050;2022-12-20T19:57:29;100258.91;;;12.40;84.83
50087;BME280;35967;50.718;7.050;2022-12-20T20:07:32;100268.50;;;12.37;85.36
50087;BME280;35967;50.718;7.050;2022-12-20T20:17:36;100272.84;;;12.35;85.90
50087;BME280;35967;50.718;7.050;2022-12-20T20:27:39;100266.00;;;12.34;85.73
50087;BME280;35967;50.718;7.050;2022-12-20T20:37:44;100263.31;;;12.37;86.05
50087;BME280;35967;50.718;7.050;2022-12-20T20:47:47;100259.06;;;12.36;86.84
50087;BME280;35967;50.718;7.050;2022-12-20T20:57:52;100264.16;;;12.37;87.09
50087;BME280;35967;50.718;7.050;2022-12-20T21:07:56;100246.66;;;12.45;86.25
50087;BME280;35967;50.718;7.050;2022-12-20T21:18:00;100247.78;;;12.38;86.96
50087;BME280;35967;50.718;7.050;2022-12-20T21:28:03;100246.00;;;12.40;86.43
50087;BME280;35967;50.718;7.050;2022-12-20T21:38:08;100247.13;;;12.33;86.88
50087;BME280;35967;50.718;7.050;2022-12-20T21:48:30;100243.44;;;12.39;86.95
50087;BME280;35967;50.718;7.050;2022-12-20T21:58:35;100253.25;;;12.29;87.47
50087;BME280;35967;50.718;7.050;2022-12-20T22:08:38;100249.00;;;12.28;88.06
50087;BME280;35967;50.718;7.050;2022-12-20T22:18:43;100246.47;;;12.26;88.89
50087;BME280;35967;50.718;7.050;2022-12-20T22:28:50;100241.38;;;12.25;89.11
50087;BME280;35967;50.718;7.050;2022-12-20T22:38:55;100251.72;;;12.25;88.71
50087;BME280;35967;50.718;7.050;2022-12-20T22:49:01;100257.53;;;12.30;88.93
50087;BME280;35967;50.718;7.050;2022-12-20T22:59:05;100244.78;;;12.25;89.13
50087;BME280;35967;50.718;7.050;2022-12-20T23:09:08;100247.47;;;12.22;90.21
50087;BME280;35967;50.718;7.050;2022-12-20T23:19:12;100255.34;;;12.19;91.11
50087;BME280;35967;50.718;7.050;2022-12-20T23:29:15;100247.47;;;12.22;91.04
50087;BME280;35967;50.718;7.050;2022-12-20T23:39:20;100259.53;;;12.22;90.67
50087;BME280;35967;50.718;7.050;2022-12-20T23:49:23;100267.50;;;12.15;90.74
50087;BME280;35967;50.718;7.050;2022-12-20T23:59:27;100276.97;;;12.15;90.37
